createdAt,value
2017-06-30T00:00:44.521Z,982.49
2017-06-30T00:01:44.548Z,982.49
2017-06-30T00:02:44.573Z,982.46
2017-06-30T00:03:44.599Z,982.48
2017-06-30T00:04:44.631Z,982.49
2017-06-30T00:05:44.656Z,982.52
2017-06-30T00:06:44.684Z,982.49
2017-06-30T00:07:44.711Z,982.44
2017-06-30T00:08:44.738Z,982.45
2017-06-30T00:09:44.772Z,982.48
2017-06-30T00:10:44.801Z,982.45
2017-06-30T00:11:44.830Z,982.47
2017-06-30T00:12:44.853Z,982.44
2017-06-30T00:13:44.878Z,982.47
2017-06-30T00:14:44.911Z,982.5
2017-06-30T00:15:44.940Z,982.46
2017-06-30T00:16:44.969Z,982.54
2017-06-30T00:17:44.997Z,982.5
2017-06-30T00:18:45.018Z,982.52
2017-06-30T00:19:45.051Z,982.51
2017-06-30T00:20:45.080Z,982.55
2017-06-30T00:21:45.110Z,982.53
2017-06-30T00:22:45.138Z,982.53
2017-06-30T00:23:45.160Z,982.55
2017-06-30T00:24:45.191Z,982.58
2017-06-30T00:25:45.220Z,982.61
2017-06-30T00:26:45.248Z,982.53
2017-06-30T00:27:45.278Z,982.5
2017-06-30T00:28:45.306Z,982.55
2017-06-30T00:29:45.331Z,982.56
2017-06-30T00:30:45.355Z,982.55
2017-06-30T00:31:45.389Z,982.54
2017-06-30T00:32:45.418Z,982.56
2017-06-30T00:33:45.447Z,982.59
2017-06-30T00:34:45.481Z,982.54
2017-06-30T00:35:45.500Z,982.51
2017-06-30T00:36:45.528Z,982.51
2017-06-30T00:37:45.558Z,982.54
2017-06-30T00:38:45.586Z,982.48
2017-06-30T00:39:45.615Z,982.5
2017-06-30T00:40:45.640Z,982.52
2017-06-30T00:41:45.669Z,982.58
2017-06-30T00:42:45.698Z,982.55
2017-06-30T00:43:45.726Z,982.5
2017-06-30T00:44:45.755Z,982.51
2017-06-30T00:45:45.784Z,982.56
2017-06-30T00:46:45.809Z,982.52
2017-06-30T00:47:45.838Z,982.51
2017-06-30T00:48:45.869Z,982.49
2017-06-30T00:49:45.897Z,982.53
2017-06-30T00:50:45.924Z,982.5
2017-06-30T00:51:45.952Z,982.52
2017-06-30T00:52:45.973Z,982.53
2017-06-30T00:53:46.008Z,982.49
2017-06-30T00:54:46.035Z,982.54
2017-06-30T00:55:46.064Z,982.51
2017-06-30T00:56:46.088Z,982.49
2017-06-30T00:57:46.113Z,982.56
2017-06-30T00:58:46.147Z,982.49
2017-06-30T00:59:46.175Z,982.53
2017-06-30T01:00:46.199Z,982.51
2017-06-30T01:01:46.232Z,982.52
2017-06-30T01:02:46.258Z,982.61
2017-06-30T01:03:46.286Z,982.56
2017-06-30T01:04:46.306Z,982.53
2017-06-30T01:05:46.343Z,982.56
2017-06-30T01:06:46.372Z,982.52
2017-06-30T01:07:46.397Z,982.49
2017-06-30T01:08:46.430Z,982.53
2017-06-30T01:09:46.455Z,982.53
2017-06-30T01:10:46.485Z,982.56
2017-06-30T01:11:46.512Z,982.54
2017-06-30T01:12:46.542Z,982.55
2017-06-30T01:13:46.566Z,982.52
2017-06-30T01:14:46.594Z,982.54
2017-06-30T01:15:46.624Z,982.55
2017-06-30T01:16:46.649Z,982.57
2017-06-30T01:17:46.682Z,982.53
2017-06-30T01:18:46.705Z,982.56
2017-06-30T01:19:46.734Z,982.57
2017-06-30T01:20:46.768Z,982.6
2017-06-30T01:21:46.792Z,982.62
2017-06-30T01:22:46.823Z,982.56
2017-06-30T01:23:46.850Z,982.59
2017-06-30T01:24:46.876Z,982.58
2017-06-30T01:25:46.904Z,982.54
2017-06-30T01:26:46.937Z,982.59
2017-06-30T01:27:46.962Z,982.61
2017-06-30T01:28:46.986Z,982.57
2017-06-30T01:29:47.015Z,982.63
2017-06-30T01:30:47.040Z,982.58
2017-06-30T01:31:47.072Z,982.57
2017-06-30T01:32:47.101Z,982.59
2017-06-30T01:33:47.130Z,982.64
2017-06-30T01:34:47.148Z,982.63
2017-06-30T01:35:47.183Z,982.67
2017-06-30T01:36:47.208Z,982.65
2017-06-30T01:37:47.242Z,982.64
2017-06-30T01:38:47.273Z,982.71
2017-06-30T01:39:47.295Z,982.72
2017-06-30T01:40:47.325Z,982.7
2017-06-30T01:41:47.353Z,982.7
2017-06-30T01:42:47.381Z,982.74
2017-06-30T01:43:47.408Z,982.7
2017-06-30T01:44:47.430Z,982.76
2017-06-30T01:45:47.460Z,982.73
2017-06-30T01:46:47.488Z,982.77
2017-06-30T01:47:47.523Z,982.78
2017-06-30T01:48:47.551Z,982.78
2017-06-30T01:49:47.575Z,982.78
2017-06-30T01:50:47.604Z,982.75
2017-06-30T01:51:47.628Z,982.73
2017-06-30T01:52:47.661Z,982.74
2017-06-30T01:53:47.686Z,982.71
2017-06-30T01:54:47.710Z,982.72
2017-06-30T01:55:47.742Z,982.74
2017-06-30T01:56:47.768Z,982.75
2017-06-30T01:57:47.797Z,982.74
2017-06-30T01:58:47.826Z,982.75
2017-06-30T01:59:47.850Z,982.72
2017-06-30T02:00:47.884Z,982.75
2017-06-30T02:01:47.913Z,982.72
2017-06-30T02:02:47.934Z,982.73
2017-06-30T02:03:47.967Z,982.66
2017-06-30T02:04:48.244Z,982.68
2017-06-30T02:05:48.024Z,982.69
2017-06-30T02:06:48.048Z,982.73
2017-06-30T02:07:48.077Z,982.69
2017-06-30T02:08:48.106Z,982.7
2017-06-30T02:09:48.435Z,982.69
2017-06-30T02:10:48.163Z,982.66
2017-06-30T02:11:48.189Z,982.69
2017-06-30T02:12:48.218Z,982.71
2017-06-30T02:13:48.249Z,982.65
2017-06-30T02:14:48.527Z,982.69
2017-06-30T02:15:48.303Z,982.66
2017-06-30T02:16:48.329Z,982.7
2017-06-30T02:17:48.358Z,982.7
2017-06-30T02:18:48.388Z,982.74
2017-06-30T02:19:48.418Z,982.69
2017-06-30T02:20:48.439Z,982.64
2017-06-30T02:21:48.465Z,982.61
2017-06-30T02:22:48.497Z,982.64
2017-06-30T02:23:48.523Z,982.6
2017-06-30T02:24:48.552Z,982.62
2017-06-30T02:25:48.580Z,982.61
2017-06-30T02:26:48.600Z,982.62
2017-06-30T02:27:48.638Z,982.59
2017-06-30T02:28:48.668Z,982.61
2017-06-30T02:29:48.687Z,982.61
2017-06-30T02:30:48.720Z,982.65
2017-06-30T02:31:48.749Z,982.65
2017-06-30T02:32:48.778Z,982.63
2017-06-30T02:33:48.801Z,982.66
2017-06-30T02:34:48.827Z,982.68
2017-06-30T02:35:48.861Z,982.7
2017-06-30T02:36:48.893Z,982.7
2017-06-30T02:37:48.913Z,982.73
2017-06-30T02:38:48.943Z,982.75
2017-06-30T02:39:48.971Z,982.74
2017-06-30T02:40:49.000Z,982.7
2017-06-30T02:41:49.020Z,982.73
2017-06-30T02:42:49.054Z,982.74
2017-06-30T02:43:49.082Z,982.73
2017-06-30T02:44:49.114Z,982.75
2017-06-30T02:45:49.139Z,982.76
2017-06-30T02:46:49.165Z,982.75
2017-06-30T02:47:49.193Z,982.79
2017-06-30T02:48:49.222Z,982.75
2017-06-30T02:49:49.251Z,982.78
2017-06-30T02:50:49.276Z,982.8
2017-06-30T02:51:49.305Z,982.8
2017-06-30T02:52:49.333Z,982.77
2017-06-30T02:53:49.357Z,982.81
2017-06-30T02:54:49.387Z,982.85
2017-06-30T02:55:49.415Z,982.87
2017-06-30T02:56:49.445Z,982.87
2017-06-30T02:57:49.473Z,982.85
2017-06-30T02:58:49.498Z,982.88
2017-06-30T02:59:49.527Z,982.91
2017-06-30T03:00:49.556Z,982.92
2017-06-30T03:01:49.582Z,982.9
2017-06-30T03:02:49.609Z,982.93
2017-06-30T03:03:49.639Z,982.95
2017-06-30T03:04:49.668Z,982.96
2017-06-30T03:05:49.695Z,982.98
2017-06-30T03:06:49.719Z,982.99
2017-06-30T03:07:49.750Z,982.95
2017-06-30T03:08:49.826Z,982.99
2017-06-30T03:09:49.805Z,982.98
2017-06-30T03:10:49.832Z,983.03
2017-06-30T03:11:49.864Z,983
2017-06-30T03:12:49.890Z,983.03
2017-06-30T03:13:49.914Z,982.98
2017-06-30T03:14:49.943Z,983.04
2017-06-30T03:15:49.967Z,983.05
2017-06-30T03:16:50.001Z,983.01
2017-06-30T03:17:50.030Z,983.03
2017-06-30T03:18:50.054Z,983.08
2017-06-30T03:19:50.082Z,983.1
2017-06-30T03:20:50.112Z,983.1
2017-06-30T03:21:50.137Z,983.1
2017-06-30T03:22:50.167Z,983.12
2017-06-30T03:23:50.194Z,983.14
2017-06-30T03:24:50.223Z,983.15
2017-06-30T03:25:50.248Z,983.16
2017-06-30T03:26:50.276Z,983.15
2017-06-30T03:27:50.305Z,983.19
2017-06-30T03:28:50.334Z,983.14
2017-06-30T03:29:50.370Z,983.19
2017-06-30T03:30:50.388Z,983.19
2017-06-30T03:31:50.416Z,983.22
2017-06-30T03:32:50.445Z,983.26
2017-06-30T03:33:50.471Z,983.27
2017-06-30T03:34:50.496Z,983.24
2017-06-30T03:35:50.529Z,983.31
2017-06-30T03:36:50.552Z,983.32
2017-06-30T03:37:50.578Z,983.32
2017-06-30T03:38:50.612Z,983.27
2017-06-30T03:39:50.637Z,983.29
2017-06-30T03:40:50.664Z,983.32
2017-06-30T03:41:50.693Z,983.34
2017-06-30T03:42:50.760Z,983.29
2017-06-30T03:43:50.751Z,983.31
2017-06-30T03:44:50.770Z,983.32
2017-06-30T03:45:50.799Z,983.33
2017-06-30T03:46:50.832Z,983.32
2017-06-30T03:47:50.857Z,983.29
2017-06-30T03:48:50.886Z,983.34
2017-06-30T03:49:50.916Z,983.36
2017-06-30T03:50:50.939Z,983.36
2017-06-30T03:51:50.972Z,983.39
2017-06-30T03:52:50.996Z,983.35
2017-06-30T03:53:51.026Z,983.4
2017-06-30T03:54:51.056Z,983.39
2017-06-30T03:55:51.079Z,983.4
2017-06-30T03:56:51.108Z,983.43
2017-06-30T03:57:51.136Z,983.43
2017-06-30T03:58:51.166Z,983.39
2017-06-30T03:59:51.190Z,983.45
2017-06-30T04:00:51.523Z,983.44
2017-06-30T04:01:51.248Z,983.44
2017-06-30T04:02:51.276Z,983.47
2017-06-30T04:03:51.302Z,983.46
2017-06-30T04:04:51.330Z,983.42
2017-06-30T04:05:51.355Z,983.42
2017-06-30T04:06:51.387Z,983.46
2017-06-30T04:07:51.413Z,983.38
2017-06-30T04:08:51.442Z,983.41
2017-06-30T04:09:51.470Z,983.44
2017-06-30T04:10:51.495Z,983.43
2017-06-30T04:11:51.524Z,983.44
2017-06-30T04:12:51.554Z,983.41
2017-06-30T04:13:51.582Z,983.38
2017-06-30T04:14:51.609Z,983.42
2017-06-30T04:15:51.638Z,983.41
2017-06-30T04:16:51.664Z,983.4
2017-06-30T04:17:51.695Z,983.39
2017-06-30T04:18:51.722Z,983.39
2017-06-30T04:19:51.743Z,983.41
2017-06-30T04:20:51.772Z,983.41
2017-06-30T04:21:51.800Z,983.42
2017-06-30T04:22:51.830Z,983.51
2017-06-30T04:23:51.859Z,983.47
2017-06-30T04:24:51.887Z,983.5
2017-06-30T04:25:51.911Z,983.51
2017-06-30T04:26:51.940Z,983.54
2017-06-30T04:27:51.964Z,983.56
2017-06-30T04:28:51.993Z,983.55
2017-06-30T04:29:52.060Z,983.58
2017-06-30T04:30:52.048Z,983.6
2017-06-30T04:31:52.080Z,983.61
2017-06-30T04:32:52.109Z,983.65
2017-06-30T04:33:52.133Z,983.65
2017-06-30T04:34:52.162Z,983.68
2017-06-30T04:35:52.190Z,983.7
2017-06-30T04:36:52.221Z,983.7
2017-06-30T04:37:52.247Z,983.73
2017-06-30T04:38:52.274Z,983.76
2017-06-30T04:39:52.301Z,983.75
2017-06-30T04:40:52.327Z,983.75
2017-06-30T04:41:52.356Z,983.76
2017-06-30T04:42:52.385Z,983.78
2017-06-30T04:43:52.410Z,983.77
2017-06-30T04:44:52.438Z,983.78
2017-06-30T04:45:52.463Z,983.79
2017-06-30T04:46:52.496Z,983.85
2017-06-30T04:47:52.520Z,983.82
2017-06-30T04:48:52.550Z,983.83
2017-06-30T04:49:52.573Z,983.86
2017-06-30T04:50:52.603Z,983.91
2017-06-30T04:51:52.630Z,983.88
2017-06-30T04:52:52.660Z,983.89
2017-06-30T04:53:52.681Z,983.94
2017-06-30T04:54:52.715Z,983.92
2017-06-30T04:55:52.738Z,983.92
2017-06-30T04:56:52.767Z,983.92
2017-06-30T04:57:52.796Z,983.96
2017-06-30T04:58:52.825Z,983.93
2017-06-30T04:59:52.855Z,983.94
2017-06-30T05:00:52.881Z,983.97
2017-06-30T05:01:52.909Z,983.92
2017-06-30T05:02:52.937Z,983.96
2017-06-30T05:03:52.962Z,984
2017-06-30T05:04:52.988Z,983.99
2017-06-30T05:05:53.020Z,983.98
2017-06-30T05:06:53.048Z,984.01
2017-06-30T05:07:53.073Z,984.03
2017-06-30T05:08:53.101Z,984.05
2017-06-30T05:09:53.129Z,984.04
2017-06-30T05:10:53.158Z,984.08
2017-06-30T05:11:53.184Z,984.06
2017-06-30T05:12:53.214Z,984.09
2017-06-30T05:13:53.241Z,984.09
2017-06-30T05:14:53.264Z,984.04
2017-06-30T05:15:53.294Z,984.06
2017-06-30T05:16:53.318Z,984.1
2017-06-30T05:17:53.350Z,984.09
2017-06-30T05:18:53.378Z,984.09
2017-06-30T05:19:53.403Z,984.06
2017-06-30T05:20:53.431Z,984.08
2017-06-30T05:21:53.460Z,984.07
2017-06-30T05:22:53.489Z,984.08
2017-06-30T05:23:53.513Z,984.05
2017-06-30T05:24:53.541Z,984.1
2017-06-30T05:25:53.570Z,984.05
2017-06-30T05:26:53.596Z,984.07
2017-06-30T05:27:53.624Z,984.09
2017-06-30T05:28:53.653Z,984.09
2017-06-30T05:29:53.684Z,984.07
2017-06-30T05:30:53.707Z,984.07
2017-06-30T05:31:53.735Z,984.09
2017-06-30T05:32:53.764Z,984.15
2017-06-30T05:33:53.789Z,984.19
2017-06-30T05:34:53.818Z,984.2
2017-06-30T05:35:53.848Z,984.23
2017-06-30T05:36:54.123Z,984.23
2017-06-30T05:37:53.901Z,984.23
2017-06-30T05:38:53.929Z,984.23
2017-06-30T05:39:53.955Z,984.24
2017-06-30T05:40:53.978Z,984.24
2017-06-30T05:41:54.264Z,984.29
2017-06-30T05:42:54.044Z,984.27
2017-06-30T05:43:54.069Z,984.26
2017-06-30T05:44:54.098Z,984.24
2017-06-30T05:45:54.123Z,984.24
2017-06-30T05:46:54.402Z,984.22
2017-06-30T05:47:54.180Z,984.23
2017-06-30T05:48:54.206Z,984.26
2017-06-30T05:49:54.233Z,984.19
2017-06-30T05:50:54.263Z,984.22
2017-06-30T05:51:54.538Z,984.24
2017-06-30T05:52:54.330Z,984.27
2017-06-30T05:53:54.345Z,984.29
2017-06-30T05:54:54.373Z,984.26
2017-06-30T05:55:54.399Z,984.24
2017-06-30T05:56:54.428Z,984.26
2017-06-30T05:57:54.455Z,984.24
2017-06-30T05:58:54.485Z,984.22
2017-06-30T05:59:54.509Z,984.29
2017-06-30T06:00:54.538Z,984.23
2017-06-30T06:01:54.563Z,984.24
2017-06-30T06:02:54.593Z,984.21
2017-06-30T06:03:54.621Z,984.23
2017-06-30T06:04:54.649Z,984.29
2017-06-30T06:05:54.679Z,984.26
2017-06-30T06:06:54.703Z,984.22
2017-06-30T06:07:54.731Z,984.27
2017-06-30T06:08:54.761Z,984.23
2017-06-30T06:09:54.789Z,984.24
2017-06-30T06:10:54.814Z,984.2
2017-06-30T06:11:54.840Z,984.26
2017-06-30T06:12:54.872Z,984.2
2017-06-30T06:13:54.901Z,984.21
2017-06-30T06:14:54.922Z,984.22
2017-06-30T06:15:54.950Z,984.26
2017-06-30T06:16:54.983Z,984.23
2017-06-30T06:17:55.015Z,984.25
2017-06-30T06:18:55.038Z,984.24
2017-06-30T06:19:55.066Z,984.22
2017-06-30T06:20:55.095Z,984.25
2017-06-30T06:21:55.123Z,984.22
2017-06-30T06:22:55.147Z,984.23
2017-06-30T06:23:55.177Z,984.26
2017-06-30T06:24:55.200Z,984.21
2017-06-30T06:25:55.230Z,984.26
2017-06-30T06:26:55.259Z,984.25
2017-06-30T06:27:55.288Z,984.24
2017-06-30T06:28:55.317Z,984.25
2017-06-30T06:29:55.346Z,984.33
2017-06-30T06:30:55.371Z,984.26
2017-06-30T06:31:55.396Z,984.3
2017-06-30T06:32:55.424Z,984.35
2017-06-30T06:33:55.457Z,984.38
2017-06-30T06:34:55.481Z,984.39
2017-06-30T06:35:55.510Z,984.4
2017-06-30T06:36:55.538Z,984.44
2017-06-30T06:37:55.567Z,984.43
2017-06-30T06:38:55.592Z,984.41
2017-06-30T06:39:55.621Z,984.41
2017-06-30T06:40:55.646Z,984.45
2017-06-30T06:41:55.680Z,984.42
2017-06-30T06:42:55.704Z,984.41
2017-06-30T06:43:55.732Z,984.45
2017-06-30T06:44:55.762Z,984.45
2017-06-30T06:45:55.786Z,984.44
2017-06-30T06:46:55.814Z,984.42
2017-06-30T06:47:55.843Z,984.49
2017-06-30T06:48:55.872Z,984.46
2017-06-30T06:49:55.898Z,984.49
2017-06-30T06:50:55.925Z,984.45
2017-06-30T06:51:55.959Z,984.51
2017-06-30T06:52:55.982Z,984.48
2017-06-30T06:53:56.011Z,984.47
2017-06-30T06:54:56.041Z,984.52
2017-06-30T06:55:56.063Z,984.48
2017-06-30T06:56:56.093Z,984.44
2017-06-30T06:57:56.124Z,984.47
2017-06-30T06:58:56.152Z,984.44
2017-06-30T06:59:56.175Z,984.45
2017-06-30T07:00:56.201Z,984.47
2017-06-30T07:01:56.235Z,984.45
2017-06-30T07:02:56.260Z,984.41
2017-06-30T07:03:56.293Z,984.45
2017-06-30T07:04:56.314Z,984.44
2017-06-30T07:05:56.346Z,984.42
2017-06-30T07:06:56.365Z,984.42
2017-06-30T07:07:56.404Z,984.45
2017-06-30T07:08:56.424Z,984.44
2017-06-30T07:09:56.457Z,984.44
2017-06-30T07:10:56.481Z,984.44
2017-06-30T07:11:56.516Z,984.48
2017-06-30T07:12:56.535Z,984.45
2017-06-30T07:13:56.569Z,984.48
2017-06-30T07:14:56.597Z,984.47
2017-06-30T07:15:56.622Z,984.48
2017-06-30T07:16:56.655Z,984.47
2017-06-30T07:17:56.930Z,984.51
2017-06-30T07:18:56.710Z,984.52
2017-06-30T07:19:56.736Z,984.53
2017-06-30T07:20:56.763Z,984.5
2017-06-30T07:21:56.795Z,984.5
2017-06-30T07:22:57.067Z,984.45
2017-06-30T07:23:56.844Z,984.47
2017-06-30T07:24:56.929Z,984.38
2017-06-30T07:25:56.906Z,984.45
2017-06-30T07:26:56.935Z,984.44
2017-06-30T07:27:57.218Z,984.41
2017-06-30T07:28:56.988Z,984.51
2017-06-30T07:29:57.013Z,984.48
2017-06-30T07:30:57.045Z,984.45
2017-06-30T07:31:57.074Z,984.5
2017-06-30T07:32:57.350Z,984.47
2017-06-30T07:33:57.124Z,984.48
2017-06-30T07:34:57.152Z,984.54
2017-06-30T07:35:57.182Z,984.49
2017-06-30T07:36:57.214Z,984.48
2017-06-30T07:37:57.487Z,984.48
2017-06-30T07:38:57.267Z,984.45
2017-06-30T07:39:57.296Z,984.47
2017-06-30T07:40:57.325Z,984.4
2017-06-30T07:41:57.354Z,984.39
2017-06-30T07:42:57.383Z,984.46
2017-06-30T07:43:57.412Z,984.41
2017-06-30T07:44:57.439Z,984.47
2017-06-30T07:45:57.469Z,984.38
2017-06-30T07:46:57.495Z,984.4
2017-06-30T07:47:57.524Z,984.46
2017-06-30T07:48:57.553Z,984.4
2017-06-30T07:49:57.581Z,984.42
2017-06-30T07:50:57.606Z,984.4
2017-06-30T07:51:57.635Z,984.42
2017-06-30T07:52:57.664Z,984.43
2017-06-30T07:53:57.693Z,984.43
2017-06-30T07:54:57.714Z,984.45
2017-06-30T07:55:57.750Z,984.49
2017-06-30T07:56:57.770Z,984.45
2017-06-30T07:57:57.804Z,984.43
2017-06-30T07:58:57.834Z,984.53
2017-06-30T07:59:57.861Z,984.5
2017-06-30T08:00:57.885Z,984.47
2017-06-30T08:01:57.919Z,984.54
2017-06-30T08:02:57.943Z,984.49
2017-06-30T08:03:57.968Z,984.49
2017-06-30T08:04:57.998Z,984.46
2017-06-30T08:05:58.025Z,984.45
2017-06-30T08:06:58.054Z,984.51
2017-06-30T08:07:58.088Z,984.43
2017-06-30T08:08:58.117Z,984.43
2017-06-30T08:09:58.145Z,984.47
2017-06-30T08:10:58.169Z,984.42
2017-06-30T08:11:58.235Z,984.53
2017-06-30T08:12:58.223Z,984.49
2017-06-30T08:13:58.255Z,984.51
2017-06-30T08:14:58.284Z,984.48
2017-06-30T08:15:58.313Z,984.48
2017-06-30T08:16:58.342Z,984.54
2017-06-30T08:17:58.363Z,984.57
2017-06-30T08:18:58.391Z,984.49
2017-06-30T08:19:58.421Z,984.5
2017-06-30T08:20:58.454Z,984.5
2017-06-30T08:21:58.483Z,984.49
2017-06-30T08:22:58.507Z,984.49
2017-06-30T08:23:58.535Z,984.47
2017-06-30T08:24:58.565Z,984.53
2017-06-30T08:25:58.594Z,984.54
2017-06-30T08:26:58.638Z,984.51
2017-06-30T08:27:58.652Z,984.53
2017-06-30T08:28:58.679Z,984.55
2017-06-30T08:29:58.715Z,984.5
2017-06-30T08:30:58.738Z,984.56
2017-06-30T08:31:58.765Z,984.53
2017-06-30T08:32:58.794Z,984.57
2017-06-30T08:33:58.820Z,984.6
2017-06-30T08:34:58.853Z,984.54
2017-06-30T08:35:58.877Z,984.62
2017-06-30T08:36:58.905Z,984.62
2017-06-30T08:37:58.931Z,984.6
2017-06-30T08:38:58.958Z,984.58
2017-06-30T08:39:58.992Z,984.54
2017-06-30T08:40:59.018Z,984.57
2017-06-30T08:41:59.051Z,984.55
2017-06-30T08:42:59.074Z,984.58
2017-06-30T08:43:59.104Z,984.55
2017-06-30T08:44:59.129Z,984.54
2017-06-30T08:45:59.163Z,984.53
2017-06-30T08:46:59.191Z,984.52
2017-06-30T08:47:59.215Z,984.54
2017-06-30T08:48:59.249Z,984.5
2017-06-30T08:49:59.275Z,984.49
2017-06-30T08:50:59.305Z,984.48
2017-06-30T08:51:59.331Z,984.47
2017-06-30T08:52:59.362Z,984.46
2017-06-30T08:53:59.391Z,984.49
2017-06-30T08:54:59.419Z,984.5
2017-06-30T08:55:59.449Z,984.55
2017-06-30T08:56:59.479Z,984.55
2017-06-30T08:57:59.503Z,984.53
2017-06-30T08:58:59.536Z,984.56
2017-06-30T08:59:59.565Z,984.52
2017-06-30T09:00:59.593Z,984.51
2017-06-30T09:01:59.613Z,984.55
2017-06-30T09:02:59.642Z,984.59
2017-06-30T09:03:59.675Z,984.53
2017-06-30T09:04:59.703Z,984.5
2017-06-30T09:05:59.732Z,984.49
2017-06-30T09:06:59.762Z,984.54
2017-06-30T09:07:59.791Z,984.55
2017-06-30T09:08:59.819Z,984.53
2017-06-30T09:09:59.848Z,984.48
2017-06-30T09:10:59.878Z,984.47
2017-06-30T09:11:59.901Z,984.45
2017-06-30T09:12:59.930Z,984.45
2017-06-30T09:14:00.210Z,984.41
2017-06-30T09:14:59.988Z,984.44
2017-06-30T09:16:00.014Z,984.39
2017-06-30T09:17:00.046Z,984.4
2017-06-30T09:18:00.073Z,984.37
2017-06-30T09:19:00.404Z,984.38
2017-06-30T09:20:00.133Z,984.46
2017-06-30T09:21:00.157Z,984.37
2017-06-30T09:22:00.182Z,984.41
2017-06-30T09:23:00.219Z,984.44
2017-06-30T09:24:00.547Z,984.47
2017-06-30T09:25:00.279Z,984.47
2017-06-30T09:26:00.306Z,984.44
2017-06-30T09:27:00.325Z,984.42
2017-06-30T09:28:00.353Z,984.46
2017-06-30T09:29:00.387Z,984.45
2017-06-30T09:30:00.416Z,984.43
2017-06-30T09:31:00.441Z,984.43
2017-06-30T09:32:00.472Z,984.45
2017-06-30T09:33:00.502Z,984.51
2017-06-30T09:34:00.531Z,984.5
2017-06-30T09:35:00.561Z,984.48
2017-06-30T09:36:00.587Z,984.52
2017-06-30T09:37:00.617Z,984.5
2017-06-30T09:38:00.642Z,984.52
2017-06-30T09:39:00.667Z,984.47
2017-06-30T09:40:00.697Z,984.45
2017-06-30T09:41:00.729Z,984.47
2017-06-30T09:42:00.758Z,984.44
2017-06-30T09:43:00.787Z,984.53
2017-06-30T09:44:00.814Z,984.53
2017-06-30T09:45:00.844Z,984.49
2017-06-30T09:46:00.868Z,984.54
2017-06-30T09:47:00.902Z,984.51
2017-06-30T09:48:00.930Z,984.61
2017-06-30T09:49:00.954Z,984.6
2017-06-30T09:50:00.982Z,984.53
2017-06-30T09:51:01.005Z,984.55
2017-06-30T09:52:01.037Z,984.49
2017-06-30T09:53:01.069Z,984.56
2017-06-30T09:54:01.099Z,984.55
2017-06-30T09:55:01.124Z,984.54
2017-06-30T09:56:01.154Z,984.6
2017-06-30T09:57:01.182Z,984.61
2017-06-30T09:58:01.214Z,984.64
2017-06-30T09:59:01.244Z,984.62
2017-06-30T10:00:01.272Z,984.65
2017-06-30T10:01:01.301Z,984.63
2017-06-30T10:02:01.326Z,984.63
2017-06-30T10:03:01.358Z,984.62
2017-06-30T10:04:01.384Z,984.6
2017-06-30T10:05:01.412Z,984.59
2017-06-30T10:06:01.441Z,984.57
2017-06-30T10:07:01.470Z,984.61
2017-06-30T10:08:01.498Z,984.58
2017-06-30T10:09:01.527Z,984.61
2017-06-30T10:10:01.552Z,984.63
2017-06-30T10:11:01.585Z,984.58
2017-06-30T10:12:01.613Z,984.62
2017-06-30T10:13:01.642Z,984.6
2017-06-30T10:14:01.671Z,984.61
2017-06-30T10:15:01.951Z,984.61
2017-06-30T10:16:01.729Z,984.55
2017-06-30T10:17:01.758Z,984.58
2017-06-30T10:18:01.782Z,984.59
2017-06-30T10:19:01.823Z,984.46
2017-06-30T10:20:02.095Z,984.54
2017-06-30T10:21:01.872Z,984.58
2017-06-30T10:22:01.903Z,984.6
2017-06-30T10:23:01.931Z,984.59
2017-06-30T10:24:01.959Z,984.57
2017-06-30T10:25:02.238Z,984.57
2017-06-30T10:26:02.018Z,984.56
2017-06-30T10:27:02.045Z,984.55
2017-06-30T10:28:02.075Z,984.58
2017-06-30T10:29:02.099Z,984.59
2017-06-30T10:30:02.383Z,984.6
2017-06-30T10:31:02.159Z,984.52
2017-06-30T10:32:02.186Z,984.57
2017-06-30T10:33:02.218Z,984.51
2017-06-30T10:34:02.244Z,984.56
2017-06-30T10:35:02.526Z,984.56
2017-06-30T10:36:02.305Z,984.56
2017-06-30T10:37:02.325Z,984.57
2017-06-30T10:38:02.359Z,984.56
2017-06-30T10:39:02.391Z,984.52
2017-06-30T10:40:02.416Z,984.6
2017-06-30T10:41:02.445Z,984.63
2017-06-30T10:42:02.480Z,984.66
2017-06-30T10:43:02.506Z,984.58
2017-06-30T10:44:02.533Z,984.59
2017-06-30T10:45:02.560Z,984.64
2017-06-30T10:46:02.589Z,984.52
2017-06-30T10:47:02.621Z,984.53
2017-06-30T10:48:02.647Z,984.59
2017-06-30T10:49:02.679Z,984.63
2017-06-30T10:50:02.705Z,984.58
2017-06-30T10:51:02.736Z,984.65
2017-06-30T10:52:02.765Z,984.63
2017-06-30T10:53:02.791Z,984.61
2017-06-30T10:54:02.823Z,984.59
2017-06-30T10:55:02.848Z,984.56
2017-06-30T10:56:02.880Z,984.64
2017-06-30T10:57:02.910Z,984.58
2017-06-30T10:58:02.939Z,984.6
2017-06-30T10:59:02.970Z,984.62
2017-06-30T11:00:02.995Z,984.69
2017-06-30T11:01:03.024Z,984.54
2017-06-30T11:02:03.050Z,984.47
2017-06-30T11:03:03.082Z,984.5
2017-06-30T11:04:03.111Z,984.51
2017-06-30T11:05:03.138Z,984.47
2017-06-30T11:06:03.168Z,984.48
2017-06-30T11:07:03.193Z,984.5
2017-06-30T11:08:03.225Z,984.51
2017-06-30T11:09:03.252Z,984.44
2017-06-30T11:10:03.287Z,984.46
2017-06-30T11:11:03.313Z,984.49
2017-06-30T11:12:03.336Z,984.47
2017-06-30T11:13:03.371Z,984.45
2017-06-30T11:14:03.396Z,984.43
2017-06-30T11:15:03.430Z,984.41
2017-06-30T11:16:03.456Z,984.42
2017-06-30T11:17:03.482Z,984.43
2017-06-30T11:18:03.514Z,984.4
2017-06-30T11:19:03.537Z,984.39
2017-06-30T11:20:03.568Z,984.35
2017-06-30T11:21:03.601Z,984.38
2017-06-30T11:22:03.634Z,984.34
2017-06-30T11:23:03.663Z,984.36
2017-06-30T11:24:03.692Z,984.39
2017-06-30T11:25:03.720Z,984.38
2017-06-30T11:26:03.739Z,984.33
2017-06-30T11:27:03.778Z,984.38
2017-06-30T11:28:03.807Z,984.37
2017-06-30T11:29:03.836Z,984.31
2017-06-30T11:30:03.864Z,984.3
2017-06-30T11:31:03.892Z,984.31
2017-06-30T11:32:03.918Z,984.26
2017-06-30T11:33:03.951Z,984.22
2017-06-30T11:34:03.978Z,984.25
2017-06-30T11:35:04.008Z,984.26
2017-06-30T11:36:04.037Z,984.26
2017-06-30T11:37:04.069Z,984.16
2017-06-30T11:38:04.098Z,984.11
2017-06-30T11:39:04.127Z,984.25
2017-06-30T11:40:04.152Z,984.21
2017-06-30T11:41:04.184Z,984.22
2017-06-30T11:42:04.245Z,984.11
2017-06-30T11:43:04.242Z,984.2
2017-06-30T11:44:04.276Z,984.16
2017-06-30T11:45:04.300Z,984.19
2017-06-30T11:46:04.330Z,984.2
2017-06-30T11:47:04.362Z,984.3
2017-06-30T11:48:04.392Z,984.28
2017-06-30T11:49:04.424Z,984.32
2017-06-30T11:50:04.451Z,984.18
2017-06-30T11:51:04.480Z,984.17
2017-06-30T11:52:04.513Z,984.16
2017-06-30T11:53:04.543Z,984.17
2017-06-30T11:54:04.571Z,984.22
2017-06-30T11:55:04.603Z,984.25
2017-06-30T11:56:04.629Z,984.24
2017-06-30T11:57:04.662Z,984.3
2017-06-30T11:58:04.690Z,984.29
2017-06-30T11:59:04.722Z,984.26
2017-06-30T12:00:04.754Z,984.14
2017-06-30T12:01:04.780Z,984.25
2017-06-30T12:02:04.814Z,984.09
2017-06-30T12:03:04.842Z,984.09
2017-06-30T12:04:04.877Z,984.02
2017-06-30T12:05:04.904Z,984.1
2017-06-30T12:06:04.932Z,984.11
2017-06-30T12:07:04.962Z,984.1
2017-06-30T12:08:04.994Z,984.07
2017-06-30T12:09:05.022Z,984.11
2017-06-30T12:10:05.048Z,984.14
2017-06-30T12:11:05.085Z,984.15
2017-06-30T12:12:05.114Z,984.09
2017-06-30T12:13:05.143Z,984.13
2017-06-30T12:14:05.176Z,984.11
2017-06-30T12:15:05.204Z,984.09
2017-06-30T12:16:05.233Z,984.08
2017-06-30T12:17:05.261Z,984.09
2017-06-30T12:18:05.289Z,984.08
2017-06-30T12:19:05.319Z,984.07
2017-06-30T12:20:05.351Z,984.06
2017-06-30T12:21:05.385Z,983.98
2017-06-30T12:22:05.409Z,983.99
2017-06-30T12:23:05.439Z,984.02
2017-06-30T12:24:05.464Z,983.99
2017-06-30T12:25:05.499Z,984.03
2017-06-30T12:26:05.528Z,983.98
2017-06-30T12:27:05.557Z,983.96
2017-06-30T12:28:05.582Z,983.97
2017-06-30T12:29:05.611Z,983.94
2017-06-30T12:30:05.638Z,983.95
2017-06-30T12:31:05.676Z,983.94
2017-06-30T12:32:05.704Z,983.96